Time;durP1;ratioP1;P1;durP2;ratioP2;P2;SDS_P1;SDS_P2;PMS_P1;PMS_P2;Temp;Humidity;BMP_temperature;BMP_pressure;BME280_temperature;BME280_humidity;BME280_pressure;Samples;Min_cycle;Max_cycle;Signal;HPM_P1;HPM_P2
2023/08/16 00:00:46;;;;;;;5.80;3.80;;;20.80;99.90;;;;;;5052331;28;20564;-65
2023/08/16 00:03:14;;;;;;;4.47;3.30;;;20.80;99.90;;;;;;5052109;28;20515;-66
2023/08/16 00:05:43;;;;;;;7.00;3.20;;;20.70;99.90;;;;;;5051430;28;20911;-65
2023/08/16 00:08:09;;;;;;;3.97;2.83;;;20.70;99.90;;;;;;5051661;28;20552;-64
2023/08/16 00:10:38;;;;;;;6.27;3.90;;;20.70;99.90;;;;;;5052031;28;20456;-65
2023/08/16 00:13:06;;;;;;;8.37;3.23;;;20.70;99.90;;;;;;5053098;28;20822;-64
2023/08/16 00:15:33;;;;;;;5.30;3.27;;;20.80;99.90;;;;;;5052889;28;20533;-64
2023/08/16 00:18:01;;;;;;;15.60;3.40;;;20.80;99.90;;;;;;5054273;28;20598;-64
2023/08/16 00:20:28;;;;;;;3.23;2.93;;;20.80;99.90;;;;;;5052256;28;20558;-64
2023/08/16 00:22:55;;;;;;;7.50;3.60;;;20.80;99.90;;;;;;5054479;28;20571;-65
2023/08/16 00:25:22;;;;;;;5.47;3.53;;;20.80;99.90;;;;;;5037083;28;20475;-64
2023/08/16 00:27:50;;;;;;;9.40;3.60;;;20.80;99.90;;;;;;5031743;28;20551;-65
2023/08/16 00:30:17;;;;;;;5.40;3.27;;;20.90;99.90;;;;;;5032987;28;20482;-65
2023/08/16 00:32:44;;;;;;;5.23;3.07;;;20.80;99.90;;;;;;5031700;28;20641;-65
2023/08/16 00:35:11;;;;;;;7.77;3.87;;;20.90;99.90;;;;;;5034303;28;20525;-65
2023/08/16 00:37:38;;;;;;;6.37;3.47;;;20.90;99.90;;;;;;5032188;28;20889;-65
2023/08/16 00:40:07;;;;;;;17.80;3.33;;;20.80;99.90;;;;;;5033130;28;20837;-65
2023/08/16 00:42:35;;;;;;;12.37;3.23;;;20.90;99.90;;;;;;5031462;28;20484;-65
2023/08/16 00:45:04;;;;;;;27.40;3.50;;;20.80;99.90;;;;;;5031047;28;21020;-65
2023/08/16 00:47:31;;;;;;;5.67;3.67;;;20.80;99.90;;;;;;5031682;28;20475;-65
2023/08/16 00:49:58;;;;;;;5.57;3.70;;;20.80;99.90;;;;;;5032270;28;20935;-65
2023/08/16 00:52:24;;;;;;;4.20;3.03;;;20.80;99.90;;;;;;5033662;28;20544;-64
2023/08/16 00:54:51;;;;;;;15.77;3.83;;;20.80;99.90;;;;;;5051845;28;20502;-65
2023/08/16 00:57:18;;;;;;;19.43;4.30;;;20.70;99.90;;;;;;5050520;28;20581;-65
2023/08/16 00:59:46;;;;;;;16.77;3.63;;;20.70;99.90;;;;;;5051911;28;20453;-65
2023/08/16 01:02:15;;;;;;;7.70;3.60;;;20.30;99.90;;;;;;5046879;28;20483;-64
2023/08/16 01:04:43;;;;;;;4.83;4.17;;;19.90;99.90;;;;;;5049266;28;20864;-65
2023/08/16 01:07:10;;;;;;;11.83;4.27;;;19.60;99.90;;;;;;5049045;28;20486;-65
2023/08/16 01:09:37;;;;;;;7.00;3.93;;;19.60;99.90;;;;;;5037420;28;21140;-65
2023/08/16 01:12:11;;;;;;;11.17;3.60;;;19.40;99.90;;;;;;5049775;28;20545;-65
2023/08/16 01:14:45;;;;;;;4.23;3.80;;;19.40;99.90;;;;;;5048123;28;20540;-65
2023/08/16 01:17:15;;;;;;;4.23;2.93;;;19.40;99.90;;;;;;5048148;28;20500;-65
2023/08/16 01:19:42;;;;;;;3.60;3.30;;;19.40;99.90;;;;;;5039797;28;21176;-64
2023/08/16 01:22:19;;;;;;;5.50;4.07;;;19.50;99.90;;;;;;5051840;28;20556;-65
2023/08/16 01:24:56;;;;;;;7.23;4.10;;;19.80;99.90;;;;;;5050064;28;20503;-64
2023/08/16 01:27:25;;;;;;;11.00;4.87;;;20.00;99.90;;;;;;5044725;28;20524;-65
2023/08/16 01:29:53;;;;;;;4.17;3.77;;;20.00;99.90;;;;;;5048620;28;20541;-65
2023/08/16 01:32:22;;;;;;;9.40;3.97;;;20.10;99.90;;;;;;5039586;28;20839;-65
2023/08/16 01:34:49;;;;;;;5.93;3.97;;;20.10;99.90;;;;;;5051302;28;20520;-64
2023/08/16 01:37:16;;;;;;;6.03;3.27;;;20.20;99.90;;;;;;5040816;28;20454;-64
2023/08/16 01:39:43;;;;;;;4.87;3.90;;;20.20;99.90;;;;;;5047490;28;20466;-64
2023/08/16 01:42:15;;;;;;;7.33;4.47;;;20.20;99.90;;;;;;5042581;28;20495;-64
2023/08/16 01:44:44;;;;;;;6.10;4.50;;;20.30;99.90;;;;;;5048193;28;21132;-64
2023/08/16 01:47:12;;;;;;;5.30;4.10;;;20.40;99.90;;;;;;5042930;28;20502;-65
2023/08/16 01:49:40;;;;;;;6.07;3.70;;;20.50;99.90;;;;;;5046542;28;20901;-64
2023/08/16 01:52:07;;;;;;;4.00;3.60;;;20.40;99.90;;;;;;5045333;28;20553;-65
2023/08/16 01:54:35;;;;;;;5.67;3.10;;;20.40;99.90;;;;;;5045258;28;20485;-64
2023/08/16 01:57:02;;;;;;;5.30;4.00;;;20.50;99.90;;;;;;5043748;28;20479;-64
2023/08/16 01:59:28;;;;;;;3.40;3.03;;;20.50;99.90;;;;;;5046446;28;20492;-64
2023/08/16 02:01:57;;;;;;;4.37;4.07;;;20.50;99.90;;;;;;5032883;28;20501;-64
2023/08/16 02:04:23;;;;;;;4.70;3.70;;;20.60;99.90;;;;;;5045871;28;20470;-63
2023/08/16 02:06:50;;;;;;;11.90;3.70;;;20.70;99.90;;;;;;5044407;28;20503;-64
2023/08/16 02:09:19;;;;;;;3.73;3.43;;;20.70;99.90;;;;;;5044949;28;20572;-64
2023/08/16 02:11:46;;;;;;;7.67;3.90;;;20.70;99.90;;;;;;5045286;28;20535;-64
2023/08/16 02:14:12;;;;;;;4.90;4.40;;;20.60;99.90;;;;;;5042973;28;20490;-65
2023/08/16 02:16:39;;;;;;;8.20;3.97;;;20.60;99.90;;;;;;5044522;28;20986;-64
2023/08/16 02:19:08;;;;;;;7.20;4.07;;;20.60;99.90;;;;;;5041975;28;21040;-64
2023/08/16 02:21:34;;;;;;;4.53;4.13;;;20.60;99.90;;;;;;5048146;28;20564;-65
2023/08/16 02:24:13;;;;;;;5.17;4.27;;;20.50;99.90;;;;;;5042568;28;20472;-64
2023/08/16 02:26:39;;;;;;;9.30;3.90;;;20.50;99.90;;;;;;5049012;28;20523;-64
2023/08/16 02:29:06;;;;;;;5.00;4.60;;;20.50;99.90;;;;;;5030727;28;20485;-64
2023/08/16 02:31:33;;;;;;;5.10;4.67;;;20.60;99.90;;;;;;5044949;28;20570;-64
2023/08/16 02:34:00;;;;;;;7.23;3.77;;;20.60;99.90;;;;;;5042549;28;20479;-64
2023/08/16 02:36:28;;;;;;;7.00;3.80;;;20.70;99.90;;;;;;5039157;28;20566;-64
2023/08/16 02:38:55;;;;;;;4.20;3.83;;;20.70;99.90;;;;;;5041786;28;20452;-65
2023/08/16 02:41:22;;;;;;;4.30;3.90;;;20.70;99.90;;;;;;5049663;28;20896;-65
2023/08/16 02:43:49;;;;;;;5.73;4.40;;;20.60;99.90;;;;;;5042622;28;21011;-66
2023/08/16 02:46:16;;;;;;;5.13;4.63;;;20.60;99.90;;;;;;5043538;28;20482;-65
2023/08/16 02:48:43;;;;;;;4.70;4.30;;;20.60;99.90;;;;;;5038237;28;21201;-65
2023/08/16 02:51:10;;;;;;;4.67;4.27;;;20.60;99.90;;;;;;5045244;28;21062;-65
2023/08/16 02:53:38;;;;;;;5.10;4.40;;;20.60;99.90;;;;;;5039885;28;20465;-65
2023/08/16 02:56:05;;;;;;;7.13;4.33;;;20.60;99.90;;;;;;5042977;28;20732;-65
2023/08/16 02:58:32;;;;;;;7.67;4.63;;;20.60;99.90;;;;;;5035488;28;20462;-65
2023/08/16 03:00:58;;;;;;;3.83;3.53;;;20.50;99.90;;;;;;5044671;28;20449;-65
2023/08/16 03:03:25;;;;;;;6.50;4.43;;;20.40;99.90;;;;;;5043774;28;20470;-65
2023/08/16 03:05:52;;;;;;;4.10;3.77;;;20.50;99.90;;;;;;5040351;28;20573;-65
2023/08/16 03:08:19;;;;;;;6.10;3.90;;;20.40;99.90;;;;;;5037303;28;20929;-65
2023/08/16 03:10:47;;;;;;;7.10;5.27;;;20.40;99.90;;;;;;5031735;28;20562;-65
2023/08/16 03:13:14;;;;;;;5.23;4.80;;;20.50;99.90;;;;;;5038224;28;20486;-65
2023/08/16 03:15:41;;;;;;;4.40;3.93;;;20.50;99.90;;;;;;5042181;28;20749;-65
2023/08/16 03:18:08;;;;;;;4.57;4.07;;;20.40;99.90;;;;;;5045018;28;20561;-65
2023/08/16 03:20:35;;;;;;;8.07;4.73;;;20.50;99.90;;;;;;5043545;28;20474;-65
2023/08/16 03:23:02;;;;;;;8.13;5.10;;;20.60;99.90;;;;;;5050929;28;20467;-65
2023/08/16 03:25:29;;;;;;;8.40;5.20;;;20.60;99.90;;;;;;5046894;28;20535;-65
2023/08/16 03:27:57;;;;;;;5.43;4.87;;;20.50;99.90;;;;;;5047518;28;20485;-65
2023/08/16 03:30:24;;;;;;;5.27;4.77;;;20.50;99.90;;;;;;5048083;28;20501;-65
2023/08/16 03:32:52;;;;;;;10.90;5.03;;;20.50;99.90;;;;;;5052157;28;20487;-65
2023/08/16 03:35:19;;;;;;;6.67;5.87;;;20.50;99.90;;;;;;5035933;28;20492;-66
2023/08/16 03:37:46;;;;;;;6.07;4.57;;;20.40;99.90;;;;;;5048776;28;20545;-65
2023/08/16 03:40:14;;;;;;;5.60;5.00;;;20.40;99.90;;;;;;5039464;28;20449;-65
2023/08/16 03:42:41;;;;;;;9.20;5.33;;;20.50;99.90;;;;;;5051524;28;20862;-66
2023/08/16 03:45:10;;;;;;;7.10;6.30;;;20.50;99.90;;;;;;5042208;28;20464;-66
2023/08/16 03:47:37;;;;;;;6.27;5.67;;;20.50;99.90;;;;;;5047879;28;20488;-63
2023/08/16 03:50:05;;;;;;;8.23;5.53;;;20.60;99.90;;;;;;5043936;28;20879;-66
2023/08/16 03:52:32;;;;;;;5.60;4.47;;;20.70;99.90;;;;;;5005332;28;20460;-66
2023/08/16 03:54:59;;;;;;;5.07;4.53;;;20.60;99.90;;;;;;5045529;28;20476;-66
2023/08/16 03:57:26;;;;;;;10.50;5.90;;;20.70;99.90;;;;;;5045921;28;21271;-66
2023/08/16 03:59:53;;;;;;;5.60;4.70;;;20.70;99.90;;;;;;5050516;28;20897;-66
2023/08/16 04:02:21;;;;;;;7.80;5.00;;;20.70;99.90;;;;;;5046892;28;20509;-66
2023/08/16 04:04:53;;;;;;;7.30;5.80;;;20.70;99.90;;;;;;5049688;28;20505;-66
2023/08/16 04:07:21;;;;;;;4.87;4.37;;;20.60;99.90;;;;;;5049542;28;20488;-66
2023/08/16 04:09:48;;;;;;;4.40;4.00;;;20.50;99.90;;;;;;5049393;28;20486;-66
2023/08/16 04:12:15;;;;;;;6.33;5.37;;;20.50;99.90;;;;;;5044659;28;20897;-66
2023/08/16 04:14:42;;;;;;;4.47;3.93;;;20.50;99.90;;;;;;5037102;28;20482;-66
2023/08/16 04:17:09;;;;;;;4.47;4.07;;;20.50;99.90;;;;;;5043511;28;20560;-66
2023/08/16 04:19:37;;;;;;;8.30;5.40;;;20.50;99.90;;;;;;5047843;28;20490;-66
2023/08/16 04:22:04;;;;;;;6.23;3.70;;;20.50;99.90;;;;;;5044961;28;20931;-66
2023/08/16 04:24:31;;;;;;;4.60;4.20;;;20.50;99.90;;;;;;5033865;28;20550;-66
2023/08/16 04:26:58;;;;;;;6.10;5.10;;;20.40;99.90;;;;;;5046638;28;20914;-66
2023/08/16 04:29:25;;;;;;;7.80;4.90;;;20.50;99.90;;;;;;5047180;28;20561;-66
2023/08/16 04:31:52;;;;;;;5.80;4.50;;;20.50;99.90;;;;;;5043551;28;20699;-66
2023/08/16 04:34:19;;;;;;;5.70;5.10;;;20.50;99.90;;;;;;5048925;28;20897;-66
2023/08/16 04:36:47;;;;;;;7.90;5.30;;;20.60;99.90;;;;;;5041822;28;20565;-66
2023/08/16 04:39:14;;;;;;;5.53;4.90;;;20.70;99.90;;;;;;5047275;28;20469;-66
2023/08/16 04:41:41;;;;;;;5.57;4.63;;;20.70;99.90;;;;;;5049286;28;20484;-67
2023/08/16 04:44:08;;;;;;;4.40;4.00;;;20.70;99.90;;;;;;5050175;28;20701;-67
2023/08/16 04:46:35;;;;;;;10.00;5.30;;;20.70;99.90;;;;;;5046187;28;20913;-66
2023/08/16 04:49:02;;;;;;;9.63;5.93;;;20.80;99.90;;;;;;5047655;28;20478;-64
2023/08/16 04:51:29;;;;;;;6.07;4.53;;;20.80;99.90;;;;;;5044972;28;20458;-65
2023/08/16 04:53:57;;;;;;;4.67;4.17;;;20.90;99.90;;;;;;5051917;28;20562;-64
2023/08/16 04:56:24;;;;;;;4.50;4.10;;;20.90;99.90;;;;;;5048396;28;20564;-64
2023/08/16 04:58:51;;;;;;;10.90;4.90;;;21.00;99.90;;;;;;5047693;28;20487;-64
2023/08/16 05:01:20;;;;;;;6.10;5.50;;;21.00;99.90;;;;;;5050806;28;20573;-65
2023/08/16 05:03:50;;;;;;;6.20;5.50;;;21.00;99.90;;;;;;5046574;28;20673;-65
2023/08/16 05:06:17;;;;;;;6.13;5.50;;;20.90;99.90;;;;;;5052506;28;20476;-65
2023/08/16 05:08:44;;;;;;;8.90;6.10;;;20.80;99.90;;;;;;5046265;28;20586;-64
2023/08/16 05:11:12;;;;;;;6.70;5.60;;;20.80;99.90;;;;;;5050909;28;20455;-64
2023/08/16 05:13:39;;;;;;;6.70;5.90;;;20.90;99.90;;;;;;5045511;28;20482;-64
2023/08/16 05:16:06;;;;;;;5.43;4.90;;;20.90;99.90;;;;;;5049904;28;20492;-65
2023/08/16 05:18:33;;;;;;;11.70;6.33;;;21.00;99.90;;;;;;5040763;28;20477;-65
2023/08/16 05:21:02;;;;;;;9.47;6.10;;;21.00;99.90;;;;;;5048931;28;20501;-65
2023/08/16 05:23:29;;;;;;;10.60;5.67;;;21.00;99.90;;;;;;5041977;28;20568;-65
2023/08/16 05:25:56;;;;;;;10.00;6.10;;;21.10;99.90;;;;;;5049700;28;20489;-65
2023/08/16 05:28:24;;;;;;;10.47;5.57;;;21.10;99.90;;;;;;5043617;28;20782;-65
2023/08/16 05:30:51;;;;;;;23.23;6.80;;;21.10;99.90;;;;;;5049070;28;20572;-65
2023/08/16 05:33:18;;;;;;;18.10;5.50;;;21.10;99.90;;;;;;5042550;28;20578;-65
2023/08/16 05:35:45;;;;;;;32.73;6.47;;;21.20;99.90;;;;;;5047084;28;20592;-65
2023/08/16 05:38:12;;;;;;;32.13;6.13;;;21.10;99.90;;;;;;5043098;28;20569;-65
2023/08/16 05:40:39;;;;;;;18.97;6.07;;;21.10;99.90;;;;;;5048320;28;21186;-65
2023/08/16 05:43:06;;;;;;;19.70;6.20;;;21.20;99.90;;;;;;5035882;28;20585;-65
2023/08/16 05:45:34;;;;;;;19.03;5.30;;;21.20;99.90;;;;;;5043444;28;20519;-65
2023/08/16 05:48:01;;;;;;;33.77;6.20;;;21.20;99.90;;;;;;5040871;28;20489;-65
2023/08/16 05:50:28;;;;;;;7.20;5.13;;;21.20;99.90;;;;;;5039479;28;20510;-65
2023/08/16 05:52:55;;;;;;;20.00;5.83;;;21.30;99.90;;;;;;5047577;28;20475;-65
2023/08/16 05:55:22;;;;;;;12.77;5.00;;;21.40;99.90;;;;;;5052318;28;20560;-65
2023/08/16 05:57:49;;;;;;;7.93;5.00;;;21.40;99.90;;;;;;5047038;28;20485;-65
2023/08/16 06:00:17;;;;;;;16.47;5.07;;;21.40;99.90;;;;;;5046634;28;20844;-65
2023/08/16 06:02:46;;;;;;;6.70;5.10;;;21.40;99.90;;;;;;5040612;28;20557;-65
2023/08/16 06:05:13;;;;;;;9.03;4.93;;;21.60;99.90;;;;;;5044215;28;20555;-65
2023/08/16 06:07:40;;;;;;;6.10;4.53;;;21.60;99.90;;;;;;5040672;28;20553;-66
2023/08/16 06:10:08;;;;;;;7.87;5.07;;;21.70;99.90;;;;;;5044975;28;20922;-67
2023/08/16 06:12:35;;;;;;;5.60;5.00;;;21.80;99.90;;;;;;5047246;28;20583;-67
2023/08/16 06:15:02;;;;;;;9.40;5.53;;;22.00;99.90;;;;;;5044838;28;20469;-67
2023/08/16 06:17:29;;;;;;;5.97;5.37;;;22.00;99.90;;;;;;5047714;28;20476;-68
2023/08/16 06:19:57;;;;;;;6.30;5.33;;;22.10;99.90;;;;;;5040374;28;20914;-67
2023/08/16 06:22:24;;;;;;;5.70;4.90;;;22.20;99.90;;;;;;5050507;28;20548;-67
2023/08/16 06:24:53;;;;;;;8.20;5.80;;;22.30;99.90;;;;;;5045703;28;20449;-68
2023/08/16 06:27:20;;;;;;;5.47;4.97;;;22.30;99.90;;;;;;5037854;28;20480;-68
2023/08/16 06:29:47;;;;;;;5.90;5.27;;;22.30;99.90;;;;;;5031121;28;20568;-68
2023/08/16 06:32:14;;;;;;;8.00;6.50;;;22.40;99.90;;;;;;5044496;28;20565;-67
2023/08/16 06:34:41;;;;;;;9.70;6.30;;;22.50;99.90;;;;;;5036515;28;20476;-67
2023/08/16 06:37:09;;;;;;;7.20;6.40;;;22.50;99.90;;;;;;5042492;28;20539;-67
2023/08/16 06:39:36;;;;;;;8.90;7.07;;;22.60;99.90;;;;;;5040920;28;20909;-68
2023/08/16 06:42:04;;;;;;;6.87;5.97;;;22.80;99.90;;;;;;5033851;28;21238;-68
2023/08/16 06:44:31;;;;;;;7.37;6.43;;;;;;;;;;5042493;28;20458;-67
2023/08/16 06:46:58;;;;;;;9.20;6.90;;;22.90;99.90;;;;;;5043520;28;20565;-67
2023/08/16 06:49:25;;;;;;;10.90;7.13;;;23.10;99.90;;;;;;5044816;28;20498;-68
2023/08/16 06:51:52;;;;;;;9.97;7.30;;;23.10;99.90;;;;;;5041763;28;20580;-67
2023/08/16 06:54:21;;;;;;;9.37;8.10;;;23.40;99.90;;;;;;5044379;28;20491;-67
2023/08/16 06:56:49;;;;;;;8.20;7.40;;;23.30;99.90;;;;;;5044010;28;20642;-67
2023/08/16 06:59:16;;;;;;;7.13;6.40;;;23.50;99.90;;;;;;5033084;28;20526;-67
2023/08/16 07:01:43;;;;;;;9.87;7.93;;;23.70;99.90;;;;;;5044691;28;20542;-66
2023/08/16 07:04:10;;;;;;;10.80;6.97;;;23.70;99.90;;;;;;5045150;28;20573;-66
2023/08/16 07:06:37;;;;;;;7.10;6.10;;;23.80;99.90;;;;;;5038155;28;20570;-66
2023/08/16 07:09:04;;;;;;;8.40;6.77;;;24.00;99.90;;;;;;5047828;28;20467;-66
2023/08/16 07:11:33;;;;;;;9.27;6.20;;;24.30;99.90;;;;;;5043273;28;20763;-66
2023/08/16 07:14:00;;;;;;;7.67;6.37;;;24.30;99.90;;;;;;5050910;28;20443;-66
2023/08/16 07:16:27;;;;;;;7.50;6.20;;;24.50;99.90;;;;;;5039184;28;21213;-66
2023/08/16 07:18:54;;;;;;;8.80;6.37;;;24.80;99.90;;;;;;5050191;28;20497;-65
2023/08/16 07:21:21;;;;;;;5.87;5.30;;;25.00;99.90;;;;;;5040261;28;20604;-65
2023/08/16 07:23:52;;;;;;;6.90;5.80;;;25.10;99.90;;;;;;5046173;28;20524;-64
2023/08/16 07:26:18;;;;;;;9.23;5.30;;;25.30;99.90;;;;;;5038181;28;20564;-65
2023/08/16 07:28:47;;;;;;;5.57;4.93;;;25.50;99.90;;;;;;5041695;28;20464;-65
2023/08/16 07:31:14;;;;;;;6.07;5.47;;;25.80;99.90;;;;;;5041056;28;20455;-65
2023/08/16 07:33:41;;;;;;;6.23;5.57;;;25.80;99.90;;;;;;5048123;28;20485;-66
2023/08/16 07:36:08;;;;;;;5.27;4.77;;;26.00;99.90;;;;;;5037387;28;20865;-65
2023/08/16 07:38:35;;;;;;;6.47;5.23;;;26.10;99.90;;;;;;5040988;28;20886;-66
2023/08/16 07:41:02;;;;;;;6.43;4.27;;;26.20;99.90;;;;;;5038864;28;20923;-66
2023/08/16 07:43:29;;;;;;;5.13;4.63;;;26.20;99.90;;;;;;5042917;28;20467;-66
2023/08/16 07:45:58;;;;;;;5.23;3.93;;;26.40;99.90;;;;;;5044576;28;20461;-66
2023/08/16 07:48:25;;;;;;;5.30;4.80;;;26.60;99.90;;;;;;5033501;28;20457;-66
2023/08/16 07:50:53;;;;;;;5.47;4.20;;;26.50;99.90;;;;;;5038770;28;20551;-66
2023/08/16 07:53:22;;;;;;;6.10;4.93;;;26.60;99.90;;;;;;5016074;28;20516;-66
2023/08/16 07:55:49;;;;;;;5.00;4.33;;;26.70;99.90;;;;;;5045607;28;20451;-66
2023/08/16 07:58:16;;;;;;;6.57;3.83;;;26.70;99.90;;;;;;5041110;28;20484;-66
2023/08/16 08:00:43;;;;;;;7.27;4.63;;;27.00;99.90;;;;;;5049777;28;20478;-66
2023/08/16 08:03:11;;;;;;;8.30;5.30;;;27.00;99.90;;;;;;5041636;28;20704;-66
2023/08/16 08:05:38;;;;;;;4.30;3.80;;;27.20;99.90;;;;;;5043570;28;20480;-66
2023/08/16 08:08:07;;;;;;;4.53;4.13;;;27.60;99.90;;;;;;5038662;28;20487;-66
2023/08/16 08:10:34;;;;;;;6.87;4.53;;;27.90;99.90;;;;;;5050835;28;20501;-66
2023/08/16 08:13:02;;;;;;;5.73;5.10;;;27.90;99.90;;;;;;5043831;28;20457;-66
2023/08/16 08:15:29;;;;;;;5.43;4.90;;;28.10;99.90;;;;;;5050525;28;20486;-66
2023/08/16 08:17:56;;;;;;;4.90;4.43;;;28.40;99.90;;;;;;5045791;28;20570;-66
2023/08/16 08:20:25;;;;;;;4.40;4.00;;;28.70;99.90;;;;;;5048861;28;20564;-66
2023/08/16 08:22:52;;;;;;;4.67;3.93;;;28.70;99.90;;;;;;5043957;28;20585;-65
2023/08/16 08:25:19;;;;;;;4.53;4.13;;;29.10;99.90;;;;;;5042889;28;20547;-66
2023/08/16 08:27:46;;;;;;;7.90;5.10;;;28.80;99.90;;;;;;5042450;28;20485;-66
2023/08/16 08:30:15;;;;;;;4.60;4.10;;;;;;;;;;5047659;28;20491;-66
2023/08/16 08:32:42;;;;;;;4.67;4.23;;;28.70;99.90;;;;;;5048621;28;20477;-66
2023/08/16 08:35:09;;;;;;;4.20;3.63;;;28.80;99.90;;;;;;5048861;28;20559;-66
2023/08/16 08:37:38;;;;;;;5.80;4.40;;;29.10;99.90;;;;;;5042939;28;20473;-65
2023/08/16 08:40:06;;;;;;;4.00;3.63;;;29.10;99.90;;;;;;5047505;28;21053;-65
2023/08/16 08:42:33;;;;;;;7.50;4.67;;;29.30;99.90;;;;;;5047629;28;20541;-65
2023/08/16 08:45:01;;;;;;;4.63;4.13;;;29.40;99.90;;;;;;5047838;28;20516;-65
2023/08/16 08:47:30;;;;;;;5.00;4.43;;;29.40;99.90;;;;;;5044858;28;20867;-66
2023/08/16 08:49:59;;;;;;;4.40;4.00;;;29.50;99.90;;;;;;5045918;28;20476;-65
2023/08/16 08:52:27;;;;;;;6.93;5.30;;;29.30;99.90;;;;;;5020031;28;20466;-65
2023/08/16 08:54:55;;;;;;;5.07;4.57;;;29.10;99.90;;;;;;5045960;28;21062;-65
2023/08/16 08:57:24;;;;;;;5.90;4.80;;;29.00;99.90;;;;;;5046215;28;20930;-65
2023/08/16 08:59:53;;;;;;;6.13;4.80;;;28.90;99.90;;;;;;5044374;28;21228;-65
2023/08/16 09:02:21;;;;;;;8.33;5.93;;;28.80;99.90;;;;;;5044806;28;20511;-65
2023/08/16 09:04:51;;;;;;;4.87;4.33;;;28.70;99.90;;;;;;5045164;28;20850;-65
2023/08/16 09:07:19;;;;;;;5.13;4.60;;;29.00;99.90;;;;;;5050253;28;20688;-65
2023/08/16 09:09:48;;;;;;;3.77;3.47;;;29.10;99.90;;;;;;5046232;28;20648;-65
2023/08/16 09:12:18;;;;;;;4.70;4.07;;;29.40;99.90;;;;;;5052504;28;20564;-65
2023/08/16 09:14:45;;;;;;;7.90;3.50;;;29.70;99.90;;;;;;5045210;28;20483;-65
2023/08/16 09:17:12;;;;;;;4.50;4.10;;;29.90;99.90;;;;;;5047950;28;20825;-64
2023/08/16 09:19:44;;;;;;;5.43;4.43;;;30.00;99.90;;;;;;5045718;28;20905;-65
2023/08/16 09:22:11;;;;;;;4.10;3.70;;;30.10;99.90;;;;;;5045280;28;20592;-65
2023/08/16 09:24:42;;;;;;;5.17;3.60;;;30.30;99.90;;;;;;5031073;28;20494;-65
2023/08/16 09:27:09;;;;;;;3.80;3.50;;;30.40;99.90;;;;;;5047036;28;20878;-64
2023/08/16 09:29:40;;;;;;;5.83;4.10;;;30.40;99.90;;;;;;5044268;28;20815;-65
2023/08/16 09:32:08;;;;;;;4.77;4.10;;;30.50;99.90;;;;;;5050486;28;20483;-65
2023/08/16 09:34:36;;;;;;;4.70;4.30;;;30.40;99.00;;;;;;5037355;28;21162;-65
2023/08/16 09:37:04;;;;;;;4.20;3.80;;;30.40;99.90;;;;;;5042046;28;21047;-65
2023/08/16 09:39:30;;;;;;;4.17;3.77;;;30.40;99.90;;;;;;5039902;28;20557;-65
2023/08/16 09:41:58;;;;;;;3.50;3.20;;;30.40;99.90;;;;;;5048968;28;20470;-65
2023/08/16 09:44:29;;;;;;;4.50;3.80;;;30.50;99.90;;;;;;5039950;28;20481;-65
2023/08/16 09:46:59;;;;;;;3.87;3.47;;;30.70;99.90;;;;;;5043495;28;20486;-66
2023/08/16 09:49:26;;;;;;;4.17;3.80;;;30.70;99.90;;;;;;5047893;28;20497;-66
2023/08/16 09:51:53;;;;;;;4.23;3.83;;;30.60;99.90;;;;;;5047234;28;20905;-65
2023/08/16 09:54:20;;;;;;;3.50;3.20;;;30.80;99.90;;;;;;5042503;28;20478;-65
2023/08/16 09:56:48;;;;;;;3.97;3.67;;;30.90;99.90;;;;;;5045337;28;21191;-65
2023/08/16 09:59:16;;;;;;;3.83;2.77;;;31.00;99.90;;;;;;5048296;28;20479;-65
2023/08/16 10:01:45;;;;;;;4.10;3.43;;;31.00;99.50;;;;;;5036070;28;20516;-64
2023/08/16 10:04:14;;;;;;;4.10;3.70;;;30.90;99.60;;;;;;5043582;28;20494;-65
2023/08/16 10:06:42;;;;;;;3.73;3.13;;;30.90;99.90;;;;;;5041663;28;20504;-65
2023/08/16 10:09:10;;;;;;;6.03;3.03;;;31.00;99.90;;;;;;5045195;28;20564;-64
2023/08/16 10:11:38;;;;;;;4.20;3.80;;;31.10;99.30;;;;;;5044028;28;20483;-65
2023/08/16 10:14:07;;;;;;;8.80;3.80;;;31.20;99.00;;;;;;5048902;28;20511;-65
2023/08/16 10:16:36;;;;;;;3.77;3.47;;;31.30;99.00;;;;;;5015119;28;20520;-65
2023/08/16 10:19:04;;;;;;;4.20;3.87;;;31.30;99.10;;;;;;5044235;28;20494;-65
2023/08/16 10:21:38;;;;;;;4.00;3.60;;;31.40;98.80;;;;;;5046571;28;20483;-65
2023/08/16 10:24:10;;;;;;;3.50;3.20;;;31.50;98.90;;;;;;5046187;28;20511;-65
2023/08/16 10:26:39;;;;;;;6.00;3.60;;;31.50;99.30;;;;;;5018603;28;20924;-65
2023/08/16 10:29:10;;;;;;;3.93;3.53;;;31.60;99.80;;;;;;5046448;28;20478;-65
2023/08/16 10:31:41;;;;;;;4.77;3.70;;;31.60;99.20;;;;;;5014222;28;20560;-65
2023/08/16 10:34:13;;;;;;;3.83;3.43;;;31.20;97.40;;;;;;5050700;28;20471;-66
2023/08/16 10:36:42;;;;;;;4.30;3.90;;;30.80;97.50;;;;;;5039857;28;20475;-65
2023/08/16 10:39:21;;;;;;;4.20;3.40;;;30.90;99.90;;;;;;5047538;28;20484;-65
2023/08/16 10:41:50;;;;;;;3.43;3.13;;;30.90;99.90;;;;;;5040235;28;20484;-65
2023/08/16 10:44:23;;;;;;;4.13;3.73;;;31.10;99.20;;;;;;5043362;28;20913;-65
2023/08/16 10:46:50;;;;;;;4.30;3.90;;;31.40;99.50;;;;;;5039637;28;21177;-65
2023/08/16 10:49:18;;;;;;;9.27;3.40;;;31.50;99.10;;;;;;5049352;28;20840;-65
2023/08/16 10:51:50;;;;;;;5.53;3.70;;;31.60;98.30;;;;;;5041208;28;20486;-65
2023/08/16 10:54:19;;;;;;;6.00;3.73;;;31.70;98.40;;;;;;5050897;28;21063;-65
2023/08/16 10:56:48;;;;;;;4.83;3.60;;;31.80;98.50;;;;;;5041266;28;20453;-65
2023/08/16 10:59:16;;;;;;;4.40;3.40;;;31.90;98.10;;;;;;5027373;28;20497;-66
2023/08/16 11:01:47;;;;;;;4.60;3.70;;;31.90;97.90;;;;;;5040226;28;20530;-66
2023/08/16 11:04:14;;;;;;;3.53;3.23;;;31.80;97.30;;;;;;5045213;28;20842;-67
2023/08/16 11:06:43;;;;;;;6.30;3.80;;;31.30;96.20;;;;;;5035685;28;20485;-67
2023/08/16 11:09:11;;;;;;;6.07;3.70;;;31.00;97.80;;;;;;5049953;28;20972;-66
2023/08/16 11:11:45;;;;;;;4.40;4.00;;;30.80;97.10;;;;;;5041108;28;20470;-67
2023/08/16 11:14:14;;;;;;;3.90;3.17;;;30.80;98.40;;;;;;5038151;28;20730;-66
2023/08/16 11:16:42;;;;;;;3.53;3.23;;;31.00;98.20;;;;;;5019540;28;20488;-65
2023/08/16 11:19:11;;;;;;;9.33;4.00;;;31.30;97.20;;;;;;5019456;28;20506;-66
2023/08/16 11:21:44;;;;;;;3.87;3.57;;;31.30;97.60;;;;;;5036873;28;20485;-65
2023/08/16 11:24:12;;;;;;;3.33;3.03;;;31.60;97.90;;;;;;5030671;28;20644;-65
2023/08/16 11:26:40;;;;;;;3.93;3.53;;;31.70;97.30;;;;;;5045534;28;20545;-65
2023/08/16 11:29:06;;;;;;;17.63;4.00;;;31.90;98.20;;;;;;5023052;28;20995;-65
2023/08/16 11:31:36;;;;;;;7.40;3.40;;;32.00;98.40;;;;;;5032961;28;20490;-65
2023/08/16 11:34:08;;;;;;;3.90;3.60;;;32.10;97.40;;;;;;5047406;28;20490;-65
2023/08/16 11:36:37;;;;;;;3.60;3.27;;;32.30;97.30;;;;;;5047111;28;20467;-65
2023/08/16 11:39:06;;;;;;;4.07;3.17;;;31.80;94.60;;;;;;5044244;28;20487;-65
2023/08/16 11:41:35;;;;;;;4.50;3.30;;;31.80;95.00;;;;;;5047756;28;20490;-65
2023/08/16 11:44:01;;;;;;;3.73;3.30;;;31.70;96.80;;;;;;5052315;28;20889;-65
2023/08/16 11:46:29;;;;;;;4.20;3.43;;;31.80;96.40;;;;;;5052114;28;20491;-67
2023/08/16 11:48:56;;;;;;;7.50;3.70;;;31.30;95.10;;;;;;5053704;28;20482;-66
2023/08/16 11:51:27;;;;;;;4.00;3.50;;;31.30;95.30;;;;;;5053969;28;20478;-66
2023/08/16 11:53:54;;;;;;;5.57;4.13;;;31.60;97.70;;;;;;5052530;28;20835;-66
2023/08/16 11:56:29;;;;;;;6.60;4.23;;;31.60;97.20;;;;;;5052208;28;20481;-66
2023/08/16 11:58:57;;;;;;;8.00;3.23;;;31.70;94.70;;;;;;5052607;28;20474;-67
2023/08/16 12:01:26;;;;;;;7.57;3.33;;;31.70;95.20;;;;;;5053452;28;20995;-67
2023/08/16 12:03:53;;;;;;;4.20;3.80;;;31.70;96.90;;;;;;5052598;28;20911;-66
2023/08/16 12:06:21;;;;;;;5.93;4.33;;;31.70;96.10;;;;;;5052732;28;20486;-66
2023/08/16 12:08:48;;;;;;;8.10;4.50;;;31.60;95.00;;;;;;5051822;28;21015;-66
2023/08/16 12:11:25;;;;;;;4.20;3.80;;;31.60;94.80;;;;;;5053899;28;21023;-66
2023/08/16 12:13:52;;;;;;;3.43;3.13;;;31.90;97.50;;;;;;5039737;28;20588;-66
2023/08/16 12:16:21;;;;;;;3.70;3.00;;;32.20;96.90;;;;;;5048707;28;20563;-66
2023/08/16 12:18:49;;;;;;;6.13;3.37;;;32.50;94.90;;;;;;5040443;28;20478;-66
2023/08/16 12:21:16;;;;;;;3.80;3.40;;;32.40;96.10;;;;;;5048821;28;20661;-66
2023/08/16 12:23:43;;;;;;;3.00;2.70;;;32.50;95.00;;;;;;5052817;28;20473;-66
2023/08/16 12:26:10;;;;;;;3.47;3.17;;;32.60;95.90;;;;;;5052741;28;20875;-66
2023/08/16 12:28:37;;;;;;;14.63;3.87;;;32.70;94.40;;;;;;5050163;28;20486;-67
2023/08/16 12:31:04;;;;;;;3.23;2.90;;;32.80;95.50;;;;;;5053328;28;20483;-66
2023/08/16 12:33:33;;;;;;;3.10;2.80;;;32.90;95.70;;;;;;5050503;28;20717;-66
2023/08/16 12:35:59;;;;;;;4.43;4.03;;;33.00;95.00;;;;;;5047654;28;20566;-66
2023/08/16 12:38:28;;;;;;;16.03;3.87;;;33.10;95.10;;;;;;5036659;28;20578;-66
2023/08/16 12:40:55;;;;;;;4.97;3.40;;;33.20;95.10;;;;;;5030983;28;20827;-66
2023/08/16 12:43:21;;;;;;;3.70;3.40;;;32.80;92.90;;;;;;5050103;28;20532;-66
2023/08/16 12:45:48;;;;;;;3.60;3.27;;;33.00;95.80;;;;;;5053203;28;20481;-66
2023/08/16 12:48:16;;;;;;;3.80;2.60;;;;;;;;;;5040771;28;20546;-66